Webcam op het Zuiden Meer informatie Webcam op het Zuiden


Webcam op het Westen Meer informatie Webcam op het Westen


Onweer radar Meer informatie blitzortung!


Regen radar  rain snow radar


Lokaal brand risico:
CBI


Regionaal brand risico: Meer informatie


Lokaal brand risico:
Gebaseerd op actuele waarde
CBI


Bezoek ook deze websites:

Template documentation
and downloads

And another site



Het weer levert geen direct gevaar op.    Er zijn geen waarschuwingen afgegeven.

METAR rapporten vliegvelden

   
ETWM - Meppen, Germany
Afstand tot: O 29 km
Gewijzigd: 29-05-2020 18:20
  
  
   Wind: Oosten 9.3 km/h
Wind: Oosten 9.3 km/h
Temperatuur: 21°C
Dauwpunt: 1°C
Vochtigheid: 27%
Barometer: 1026 hPa
ETWM 291620Z AUTO 08005KT //// // ////// 21/01 Q1026 ///
EHGG - Groningen/Eelde, Netherlands
Afstand tot: NNW 47 km
Gewijzigd: 29-05-2020 18:55
Helder  
Helder  
   Wind: NNO 24.1 km/h
Wind: NNO 24.1 km/h
Temperatuur: 17°C
Dauwpunt: 7°C
Vochtigheid: 52%
Barometer: 1027 hPa
Bewolking: Helder
Zicht: meer dan 10 km
Bewolking: Helder
EHGG 291655Z AUTO 03013KT 360V060 9999 NCD 17/07 Q1027 NOSIG
EDDG - Muenster/Osnabru, Germany
Afstand tot: ZO 87 km
Gewijzigd: 29-05-2020 18:50
Helder  
Helder  
   Wind: NO 11.1 km/h
Wind: NO 11.1 km/h
Temperatuur: 21°C
Dauwpunt: 3°C
Vochtigheid: 31%
Barometer: 1025 hPa
Zicht: meer dan 10 km
Bewolking: Helder
EDDG 291650Z 05006KT 340V130 CAVOK 21/03 Q1025 NOSIG
EHLW - Leeuwarden Rnlaf, Netherlands
Afstand tot: NW 93 km
Gewijzigd: 29-05-2020 19:04
Nevel, Bewolking  
Nevel, Bewolking  
   Wind: NO 29.6 km/h
Wind: NO 29.6 km/h
Temperatuur: 15°C
Dauwpunt: 7°C
Vochtigheid: 59%
Barometer: 1027 hPa
Bewolking: Bewolking
Zicht: 6 km
Bewolking: Bewolking 38000 ft
EHLW 291704Z AUTO 05016KT 010V100 6000 HZ OVC380 15/07 Q1027 WHT
ETNT - Wittmundhaven(Ga, Germany
Afstand tot: NNO 100 km
Gewijzigd: 29-05-2020 18:20
  
  
   Wind: NNO 22.2 km/h
Wind: NNO 22.2 km/h
Temperatuur: 16°C
Dauwpunt: 5°C
Vochtigheid: 48%
Barometer: 1028 hPa
Zicht: meer dan 10 km
ETNT 291620Z 03012KT 9999 16/05 Q1028 BLU+
ETND - Diepholz (ger-Af, Germany
Afstand tot: O 104 km
Gewijzigd: 29-05-2020 11:20
Verouderd
Licht bewolkt  
Licht bewolkt  
   Wind: Oosten 7.4 km/h
Wind: Oosten 7.4 km/h
Temperatuur: 19°C
Dauwpunt: 5°C
Vochtigheid: 40%
Barometer: 1030 hPa
Bewolking: Licht bewolkt
Zicht: meer dan 10 km
Bewolking: Licht bewolkt 4000 ft
ETND 290920Z 08004KT 9999 FEW040 19/05 Q1030 BLU+
ETNT - Wittmundhaven(Ga, Germany
Afstand tot: NNO 102 km
Gewijzigd: 29-05-2020 18:20
  
  
   Wind: NNO 22.2 km/h
Wind: NNO 22.2 km/h
Temperatuur: 16°C
Dauwpunt: 5°C
Vochtigheid: 48%
Barometer: 1028 hPa
Zicht: meer dan 10 km
ETNT 291620Z 03012KT 9999 16/05 Q1028 BLU+
EHDL - Deelen Rnlafb, Netherlands
Afstand tot: ZW 103 km
Gewijzigd: 29-05-2020 18:55
Helder  
Helder  
   Wind: NO 16.7 km/h
Wind: NO 16.7 km/h
Temperatuur: 22°C
Dauwpunt: 4°C
Vochtigheid: 31%
Barometer: 1025 hPa
Bewolking: Helder
Zicht: meer dan 10 km
Bewolking: Helder
EHDL 291655Z AUTO 05009KT 320V120 9999 NCD 22/04 Q1025 BLU
EHMA - Awg-1 Sea, Netherlands
Afstand tot: NW 105 km
Gewijzigd: 29-05-2020 18:55
Gedeeltelijk bewolkt  
Gedeeltelijk bewolkt  
   Wind: NO 29.6 km/h
Wind: NO 29.6 km/h
Temperatuur: 13°C
Dauwpunt: 8°C
Vochtigheid: 72%
Barometer: 1028 hPa
Bewolking: Gedeeltelijk bewolkt
Zicht: meer dan 10 km
Bewolking: Gedeeltelijk bewolkt
EHMA 291655Z AUTO 05016KT 9999 NSC 13/08 Q1028
EDDW - Bremen, Germany
Afstand tot: ONO 135 km
Gewijzigd: 29-05-2020 18:50
Helder  
Helder  
   Wind: NO 11.1 km/h
Wind: NO 11.1 km/h
Temperatuur: 22°C
Dauwpunt: 2°C
Vochtigheid: 27%
Barometer: 1026 hPa
Zicht: meer dan 10 km
Bewolking: Helder
EDDW 291650Z 04006KT 360V090 CAVOK 22/02 Q1026 NOSIG
EHVL - Vlieland Island, Netherlands
Afstand tot: WNW 138 km
Gewijzigd: 29-05-2020 18:55
Licht bewolkt  
Licht bewolkt  
   Wind: NO 33.3 km/h
Wind: NO 33.3 km/h
Temperatuur: 14°C
Dauwpunt: 8°C
Vochtigheid: 67%
Barometer: 1027 hPa
Bewolking: Licht bewolkt
Zicht: meer dan 10 km
Bewolking: Licht bewolkt 38000 ft
EHVL 291655Z AUTO 05018KT 9999 FEW380 14/08 Q1027 BLU
EDLV - Niederrhein, Germany
Afstand tot: ZZW 139 km
Gewijzigd: 29-05-2020 13:50
Verouderd
Helder  
Helder  
   Wind: varieert 7.4 km/h
Wind: varieert 7.4 km/h
Temperatuur: 21°C
Dauwpunt: 4°C
Vochtigheid: 33%
Barometer: 1027 hPa
Zicht: meer dan 10 km
Bewolking: Helder
EDLV 291150Z VRB04KT CAVOK 21/04 Q1027
EHKD - De Kooy (navy), Netherlands
Afstand tot: W 144 km
Gewijzigd: 29-05-2020 18:55
Bewolking  
Bewolking  
   Wind: NO 24.1 km/h<br />Gust to 24.1 km/h
Wind: NO 24.1 km/h
Gust to 24.1 km/h
Temperatuur: 16°C
Dauwpunt: 10°C
Vochtigheid: 68%
Barometer: 1027 hPa
Bewolking: Bewolking
Zicht: meer dan 10 km
Bewolking: Bewolking 37000 ft
EHKD 291655Z AUTO 04013G24KT 010V070 9999 OVC370 16/10 Q1027 BLU 03012KT CAVOK
EDLW - Dortmund/Wickede, Germany
Afstand tot: ZZO 150 km
Gewijzigd: 29-05-2020 18:50
Helder  
Helder  
   Wind: NO 16.7 km/h
Wind: NO 16.7 km/h
Temperatuur: 21°C
Dauwpunt: 2°C
Vochtigheid: 29%
Barometer: 1025 hPa
Bewolking: Helder
Zicht: meer dan 10 km
Bewolking: Helder
EDLW 291650Z AUTO 05009KT 360V070 9999 // NCD 21/02 Q1025
EHVK - Volkel Rnlafb, Netherlands
Afstand tot: ZZW 149 km
Gewijzigd: 29-05-2020 18:55
Helder  
Helder  
   Wind: ONO 14.8 km/h
Wind: ONO 14.8 km/h
Temperatuur: 22°C
Dauwpunt: 4°C
Vochtigheid: 31%
Barometer: 1024 hPa
Bewolking: Helder
Zicht: meer dan 10 km
Bewolking: Helder
EHVK 291655Z AUTO 06008KT 030V120 9999 NCD 22/04 Q1024 BLU
EDLW - Dortmund/Wickede, Germany
Afstand tot: ZZO 150 km
Gewijzigd: 29-05-2020 18:50
Helder  
Helder  
   Wind: NO 16.7 km/h
Wind: NO 16.7 km/h
Temperatuur: 21°C
Dauwpunt: 2°C
Vochtigheid: 29%
Barometer: 1025 hPa
Bewolking: Helder
Zicht: meer dan 10 km
Bewolking: Helder
EDLW 291650Z AUTO 05009KT 360V070 9999 // NCD 21/02 Q1025
EHMG - L9-Ff-1 Sea, Netherlands
Afstand tot: NW 155 km
Gewijzigd: 29-05-2020 18:55
Gedeeltelijk bewolkt  
Gedeeltelijk bewolkt  
   Wind: ONO 31.5 km/h
Wind: ONO 31.5 km/h
Temperatuur: 12°C
Dauwpunt: 8°C
Vochtigheid: 77%
Barometer: 1029 hPa
Bewolking: Gedeeltelijk bewolkt
Zicht: meer dan 10 km
Bewolking: Gedeeltelijk bewolkt
EHMG 291655Z AUTO 06017KT 9999 NSC 12/08 Q1029
ETHB - Buckeburg(Ger-Ar, Germany
Afstand tot: OZO 161 km
Gewijzigd: 29-05-2020 18:20
  
  
   Wind: Oosten 16.7 km/h
Wind: Oosten 16.7 km/h
Temperatuur: 20°C
Dauwpunt: 2°C
Vochtigheid: 30%
Barometer: 1026 hPa
Zicht: meer dan 10 km
ETHB 291620Z AUTO 09009KT 9999 // ////// 20/02 Q1026 ///
ETMN - Nordholz (ger-Na, Germany
Afstand tot: NO 164 km
Gewijzigd: 29-05-2020 18:20
Licht bewolkt  
Licht bewolkt  
   Wind: Noorden 20.4 km/h
Wind: Noorden 20.4 km/h
Temperatuur: 17°C
Dauwpunt: 5°C
Vochtigheid: 45%
Barometer: 1028 hPa
Bewolking: Licht bewolkt
Zicht: meer dan 10 km
Bewolking: Licht bewolkt 5000 ft
ETMN 291620Z 36011KT 9999 FEW050 17/05 Q1028 BLU+
EDDL - Duesseldorf, Germany
Afstand tot: Z 165 km
Gewijzigd: 29-05-2020 18:50
Helder  
Helder  
   Wind: ONO 22.2 km/h
Wind: ONO 22.2 km/h
Temperatuur: 22°C
Dauwpunt: 1°C
Vochtigheid: 25%
Barometer: 1024 hPa
Zicht: meer dan 10 km
Bewolking: Helder
EDDL 291650Z 07012KT 030V110 CAVOK 22/01 Q1024 NOSIG
EDLN - Monchengladbach, Germany
Afstand tot: Z 174 km
Gewijzigd: 29-05-2020 18:50
Helder  
Helder  
   Wind: ONO 14.8 km/h
Wind: ONO 14.8 km/h
Temperatuur: 22°C
Dauwpunt: 4°C
Vochtigheid: 31%
Barometer: 1024 hPa
Zicht: meer dan 10 km
Bewolking: Helder
EDLN 291650Z 06008KT 020V120 CAVOK 22/04 Q1024

Script ontwikkeld door  Saratoga-weather.org Aangepast voor de template door  Weerstation Leuven

U vindt ons ook hier:

Het Weer Aktueel

European Weather Network

Weather Underground

Wetterpage 24

Apparatuur in gebruik:

Weerstation
Davis VP2

Weerprogramma
Meteohub

Hardware
RaspberryPI, Wireless Weather Envoy, MeteoStick, TP-Link MR3020

Leverancier
Weerhuisje.nl weerstations

Davis VP2

Meteohub

RaspberryPI, Wireless Weather Envoy, MeteoStick, TP-Link MR3020

Weerhuisje.nl weerstations